createdAt,value
2019-05-07T00:01:19.992Z,14.14
2019-05-07T00:04:25.795Z,14.35
2019-05-07T00:07:32.145Z,14.17
2019-05-07T00:10:37.970Z,14.30
2019-05-07T00:13:44.524Z,14.57
2019-05-07T00:16:50.347Z,14.25
2019-05-07T00:19:56.070Z,14.32
2019-05-07T00:23:02.966Z,14.29
2019-05-07T00:26:08.966Z,14.05
2019-05-07T00:29:14.671Z,14.59
2019-05-07T00:32:22.201Z,14.41
2019-05-07T00:35:32.409Z,14.52
2019-05-07T00:38:42.726Z,14.35
2019-05-07T00:41:55.350Z,14.19
2019-05-07T00:45:17.830Z,13.87
2019-05-07T00:48:17.043Z,13.97
2019-05-07T00:51:33.552Z,13.81
2019-05-07T00:54:39.416Z,14.16
2019-05-07T00:57:45.180Z,14.03
2019-05-07T01:00:52.971Z,13.98
2019-05-07T01:03:58.243Z,13.71
2019-05-07T01:07:04.149Z,13.70
2019-05-07T01:10:12.722Z,13.80
2019-05-07T01:13:18.535Z,13.35
2019-05-07T01:16:24.381Z,13.45
2019-05-07T01:19:30.125Z,13.66
2019-05-07T01:22:36.676Z,13.78
2019-05-07T01:25:43.170Z,13.63
2019-05-07T01:29:03.050Z,13.71
2019-05-07T01:32:17.082Z,13.71
2019-05-07T01:35:42.333Z,13.73
2019-05-07T01:38:48.097Z,13.79
2019-05-07T01:41:53.846Z,13.59
2019-05-07T01:44:59.586Z,13.39
2019-05-07T01:48:05.449Z,13.45
2019-05-07T01:51:12.864Z,13.59
2019-05-07T01:54:18.733Z,13.68
2019-05-07T01:57:24.662Z,13.78
2019-05-07T02:00:32.468Z,13.56
2019-05-07T02:03:56.333Z,13.66
2019-05-07T02:07:20.273Z,13.47
2019-05-07T02:10:52.307Z,13.46
2019-05-07T02:13:58.168Z,13.45
2019-05-07T02:17:03.963Z,13.52
2019-05-07T02:20:10.551Z,13.37
2019-05-07T02:23:16.392Z,13.21
2019-05-07T02:26:22.683Z,13.39
2019-05-07T02:29:28.523Z,13.40
2019-05-07T02:32:35.417Z,13.49
2019-05-07T02:35:43.911Z,13.13
2019-05-07T02:38:57.489Z,13.05
2019-05-07T02:42:03.774Z,12.68
2019-05-07T02:45:44.255Z,12.97
2019-05-07T02:48:59.592Z,12.90
2019-05-07T02:52:32.339Z,13.12
2019-05-07T02:55:45.400Z,12.95
2019-05-07T02:58:52.805Z,13.13
2019-05-07T03:01:58.763Z,13.03
2019-05-07T03:05:05.570Z,12.81
2019-05-07T03:08:13.407Z,12.44
2019-05-07T03:11:18.885Z,12.51
2019-05-07T03:14:24.664Z,12.88
2019-05-07T03:17:33.210Z,12.76
2019-05-07T03:20:53.474Z,12.90
2019-05-07T03:24:13.810Z,12.54
2019-05-07T03:27:18.114Z,12.89
2019-05-07T03:30:56.617Z,12.74
2019-05-07T03:34:07.335Z,12.76
2019-05-07T03:37:15.093Z,12.78
2019-05-07T03:40:23.088Z,12.72
2019-05-07T03:43:28.234Z,12.61
2019-05-07T03:46:52.039Z,12.62
2019-05-07T03:49:43.064Z,12.86
2019-05-07T03:52:48.846Z,12.86
2019-05-07T03:55:54.827Z,12.92
2019-05-07T03:59:03.453Z,13.09
2019-05-07T04:02:08.154Z,13.11
2019-05-07T04:05:14.563Z,12.73
2019-05-07T04:08:23.289Z,13.18
2019-05-07T04:11:27.969Z,12.92
2019-05-07T04:14:34.952Z,12.81
2019-05-07T04:17:42.970Z,12.79
2019-05-07T04:20:48.358Z,13.08
2019-05-07T04:24:13.575Z,12.96
2019-05-07T04:27:25.770Z,12.84
2019-05-07T04:30:33.183Z,13.10
2019-05-07T04:33:43.969Z,12.74
2019-05-07T04:36:53.228Z,12.91
2019-05-07T04:39:57.636Z,13.22
2019-05-07T04:43:03.442Z,13.32
2019-05-07T04:46:09.155Z,13.46
2019-05-07T04:49:14.973Z,13.86
2019-05-07T04:52:27.380Z,13.74
2019-05-07T04:55:33.639Z,14.23
2019-05-07T04:58:39.467Z,14.55
2019-05-07T05:01:53.216Z,14.87
2019-05-07T05:04:58.742Z,14.91
2019-05-07T05:08:04.528Z,14.61
2019-05-07T05:11:12.588Z,14.41
2019-05-07T05:14:17.653Z,14.31
2019-05-07T05:17:23.301Z,14.47
2019-05-07T05:21:02.948Z,14.35
2019-05-07T05:24:16.392Z,14.86
2019-05-07T05:27:22.615Z,14.30
2019-05-07T05:30:38.846Z,14.15
2019-05-07T05:33:44.567Z,14.13
2019-05-07T05:36:53.219Z,14.11
2019-05-07T05:40:06.253Z,14.09
2019-05-07T05:43:31.938Z,13.95
2019-05-07T05:46:38.054Z,14.14
2019-05-07T05:49:43.874Z,14.11
2019-05-07T05:52:55.503Z,14.05
2019-05-07T05:56:04.257Z,13.96
2019-05-07T05:59:27.734Z,14.01
2019-05-07T06:02:58.573Z,13.87
2019-05-07T06:06:23.442Z,14.20
2019-05-07T06:09:57.674Z,14.01
2019-05-07T06:13:23.095Z,14.42
2019-05-07T06:16:36.708Z,14.42
2019-05-07T06:19:51.983Z,14.36
2019-05-07T06:23:35.160Z,14.35
2019-05-07T06:26:42.566Z,14.64
2019-05-07T06:29:48.518Z,14.77
2019-05-07T06:32:54.347Z,14.66
2019-05-07T06:36:02.670Z,14.66
2019-05-07T06:39:17.734Z,15.70
2019-05-07T06:42:48.555Z,16.10
2019-05-07T06:45:56.265Z,16.30
2019-05-07T06:49:02.309Z,16.12
2019-05-07T06:52:09.292Z,16.37
2019-05-07T06:55:15.672Z,16.82
2019-05-07T06:58:22.804Z,16.66
2019-05-07T07:01:56.640Z,16.95
2019-05-07T07:05:09.573Z,16.90
2019-05-07T07:08:23.464Z,17.53
2019-05-07T07:11:35.158Z,17.27
2019-05-07T07:14:42.387Z,17.56
2019-05-07T07:17:48.755Z,17.74
2019-05-07T07:20:54.696Z,17.74
2019-05-07T07:24:02.846Z,17.98
2019-05-07T07:27:07.949Z,17.69
2019-05-07T07:30:25.441Z,17.91
2019-05-07T07:33:33.297Z,17.96
2019-05-07T07:36:45.754Z,17.83
2019-05-07T07:39:54.622Z,17.95
2019-05-07T07:43:02.761Z,17.63
2019-05-07T07:46:09.519Z,17.97
2019-05-07T07:49:15.473Z,18.24
2019-05-07T07:52:22.983Z,18.41
2019-05-07T07:55:35.134Z,18.44
2019-05-07T07:59:01.893Z,18.95
2019-05-07T08:02:22.984Z,19.52
2019-05-07T08:05:29.975Z,19.69
2019-05-07T08:08:35.673Z,19.64
2019-05-07T08:11:42.545Z,19.41
2019-05-07T08:14:48.522Z,19.05
2019-05-07T08:17:54.317Z,19.23
2019-05-07T08:21:02.447Z,19.48
2019-05-07T08:24:07.532Z,19.93
2019-05-07T08:27:15.341Z,19.54
2019-05-07T08:30:23.519Z,19.54
2019-05-07T08:33:32.889Z,19.23
2019-05-07T08:36:38.674Z,18.85
2019-05-07T08:39:45.424Z,19.19
2019-05-07T08:42:52.737Z,19.21
2019-05-07T08:46:23.449Z,19.24
2019-05-07T08:49:37.056Z,18.82
2019-05-07T08:52:36.759Z,19.17
2019-05-07T08:55:42.577Z,18.98
2019-05-07T08:58:48.418Z,19.15
2019-05-07T09:01:54.319Z,19.53
2019-05-07T09:05:00.034Z,19.52
2019-05-07T09:08:05.796Z,18.77
2019-05-07T09:11:13.298Z,19.34
2019-05-07T09:14:19.199Z,19.45
2019-05-07T09:17:24.949Z,19.48
2019-05-07T09:20:32.126Z,19.99
2019-05-07T09:23:38.148Z,20.35
2019-05-07T09:26:57.048Z,20.06
2019-05-07T09:30:41.987Z,20.41
2019-05-07T09:33:49.357Z,20.05
2019-05-07T09:36:56.791Z,19.41
2019-05-07T09:40:02.952Z,20.01
2019-05-07T09:43:08.810Z,20.45
2019-05-07T09:46:14.570Z,20.42
2019-05-07T09:49:22.141Z,20.54
2019-05-07T09:52:27.673Z,20.75
2019-05-07T09:55:33.496Z,20.84
2019-05-07T09:58:39.391Z,19.89
2019-05-07T10:01:46.294Z,20.51
2019-05-07T10:04:52.752Z,20.31
2019-05-07T10:07:58.668Z,20.28
2019-05-07T10:11:06.264Z,20.32
2019-05-07T10:14:12.668Z,20.45
2019-05-07T10:17:40.029Z,20.17
2019-05-07T10:20:45.964Z,19.72
2019-05-07T10:23:52.199Z,19.59
2019-05-07T10:26:58.322Z,20.25
2019-05-07T10:30:04.922Z,20.88
2019-05-07T10:33:12.448Z,20.84
2019-05-07T10:36:18.436Z,20.72
2019-05-07T10:39:24.883Z,20.80
2019-05-07T10:42:32.284Z,20.44
2019-05-07T10:45:48.846Z,20.61
2019-05-07T10:49:01.807Z,20.76
2019-05-07T10:52:07.744Z,21.36
2019-05-07T10:55:17.043Z,20.72
2019-05-07T10:58:21.903Z,20.45
2019-05-07T11:01:37.410Z,20.24
2019-05-07T11:04:46.621Z,20.09
2019-05-07T11:07:53.888Z,20.50
2019-05-07T11:10:59.913Z,20.60
2019-05-07T11:14:05.945Z,20.63
2019-05-07T11:17:32.627Z,20.73
2019-05-07T11:20:49.127Z,20.94
2019-05-07T11:23:46.347Z,21.08
2019-05-07T11:26:53.156Z,20.65
2019-05-07T11:30:02.565Z,20.71
2019-05-07T11:33:09.228Z,20.72
2019-05-07T11:36:15.066Z,21.04
2019-05-07T11:39:22.625Z,20.34
2019-05-07T11:42:47.279Z,20.96
2019-05-07T11:46:06.205Z,20.64
2019-05-07T11:49:22.738Z,20.59
2019-05-07T11:52:35.903Z,20.39
2019-05-07T11:55:42.143Z,19.90
2019-05-07T11:58:50.647Z,19.56
2019-05-07T12:02:00.137Z,19.78
2019-05-07T12:05:06.158Z,20.04
2019-05-07T12:08:13.207Z,19.96
2019-05-07T12:11:19.463Z,19.23
2019-05-07T12:14:31.404Z,19.70
2019-05-07T12:17:32.582Z,20.35
2019-05-07T12:20:38.890Z,20.46
2019-05-07T12:23:44.629Z,20.35
2019-05-07T12:26:52.250Z,20.34
2019-05-07T12:29:58.174Z,19.91
2019-05-07T12:33:32.510Z,19.07
2019-05-07T12:36:40.267Z,19.09
2019-05-07T12:39:45.977Z,19.14
2019-05-07T12:42:52.452Z,19.08
2019-05-07T12:45:58.173Z,19.15
2019-05-07T12:49:04.165Z,19.55
2019-05-07T12:52:22.778Z,19.31
2019-05-07T12:55:38.957Z,18.99
2019-05-07T12:58:45.023Z,19.07
2019-05-07T13:02:21.823Z,19.73
2019-05-07T13:05:23.090Z,19.61
2019-05-07T13:08:29.236Z,19.37
2019-05-07T13:11:35.517Z,19.95
2019-05-07T13:14:42.624Z,19.58
2019-05-07T13:17:48.426Z,19.65
2019-05-07T13:20:54.812Z,19.23
2019-05-07T13:24:02.609Z,19.00
2019-05-07T13:27:09.057Z,19.15
2019-05-07T13:30:15.509Z,18.67
2019-05-07T13:33:22.951Z,18.20
2019-05-07T13:36:29.054Z,17.93
2019-05-07T13:39:43.000Z,17.57
2019-05-07T13:43:05.328Z,17.32
2019-05-07T13:46:13.770Z,17.33
2019-05-07T13:49:21.944Z,16.74
2019-05-07T13:52:27.645Z,16.92
2019-05-07T13:55:33.583Z,17.28
2019-05-07T13:58:39.658Z,17.71
2019-05-07T14:02:13.838Z,18.08
2019-05-07T14:05:17.929Z,18.00
2019-05-07T14:08:25.558Z,18.27
2019-05-07T14:11:32.253Z,18.19
2019-05-07T14:14:38.814Z,17.79
2019-05-07T14:17:44.817Z,18.07
2019-05-07T14:20:52.464Z,18.17
2019-05-07T14:23:58.479Z,18.32
2019-05-07T14:27:04.377Z,18.21
2019-05-07T14:30:12.782Z,18.46
2019-05-07T14:33:30.113Z,18.30
2019-05-07T14:36:44.949Z,17.00
2019-05-07T14:39:51.781Z,16.66
2019-05-07T14:43:04.365Z,16.57
2019-05-07T14:46:12.017Z,16.05
2019-05-07T14:49:18.747Z,16.07
2019-05-07T14:52:32.689Z,15.95
2019-05-07T14:55:32.524Z,15.84
2019-05-07T14:58:38.760Z,15.70
2019-05-07T15:01:44.586Z,15.82
2019-05-07T15:04:52.482Z,15.61
2019-05-07T15:08:08.355Z,15.35
2019-05-07T15:11:05.734Z,14.60
2019-05-07T15:14:12.125Z,15.11
2019-05-07T15:17:27.372Z,15.15
2019-05-07T15:20:33.384Z,15.09
2019-05-07T15:23:42.294Z,15.22
2019-05-07T15:26:50.199Z,15.20
2019-05-07T15:29:56.132Z,15.27
2019-05-07T15:33:02.393Z,14.95
2019-05-07T15:36:08.326Z,14.68
2019-05-07T15:39:14.156Z,14.85
2019-05-07T15:42:22.100Z,14.92
2019-05-07T15:45:27.512Z,14.56
2019-05-07T15:48:35.720Z,14.15
2019-05-07T15:51:54.949Z,14.31
2019-05-07T15:55:02.612Z,14.31
2019-05-07T15:58:09.080Z,14.31
2019-05-07T16:01:14.919Z,14.20
2019-05-07T16:04:25.499Z,14.14
2019-05-07T16:07:28.225Z,14.44
2019-05-07T16:10:33.932Z,14.35
2019-05-07T16:13:42.693Z,14.54
2019-05-07T16:16:48.784Z,14.44
2019-05-07T16:19:55.199Z,14.09
2019-05-07T16:23:14.454Z,13.89
2019-05-07T16:26:12.541Z,13.94
2019-05-07T16:29:18.102Z,13.82
2019-05-07T16:32:24.203Z,13.80
2019-05-07T16:35:32.007Z,13.71
2019-05-07T16:38:37.845Z,13.82
2019-05-07T16:41:43.484Z,13.35
2019-05-07T16:44:49.278Z,13.39
2019-05-07T16:47:55.139Z,13.20
2019-05-07T16:51:02.351Z,13.45
2019-05-07T16:54:09.034Z,13.27
2019-05-07T16:57:42.518Z,13.13
2019-05-07T17:00:52.875Z,13.11
2019-05-07T17:03:59.759Z,13.23
2019-05-07T17:07:07.357Z,13.30
2019-05-07T17:10:14.008Z,13.32
2019-05-07T17:13:19.759Z,12.97
2019-05-07T17:16:25.664Z,13.11
2019-05-07T17:19:31.969Z,12.95
2019-05-07T17:22:37.813Z,13.20
2019-05-07T17:25:43.567Z,13.10
2019-05-07T17:28:49.313Z,12.99
2019-05-07T17:31:55.108Z,13.10
2019-05-07T17:35:02.584Z,12.91
2019-05-07T17:38:10.050Z,12.86
2019-05-07T17:41:22.454Z,12.66
2019-05-07T17:44:24.099Z,12.90
2019-05-07T17:47:32.014Z,13.04
2019-05-07T17:50:46.062Z,12.95
2019-05-07T17:53:59.771Z,12.97
2019-05-07T17:56:59.357Z,12.91
2019-05-07T18:00:05.943Z,12.95
2019-05-07T18:03:32.331Z,13.22
2019-05-07T18:06:39.663Z,13.13
2019-05-07T18:09:46.403Z,12.88
2019-05-07T18:12:53.744Z,13.04
2019-05-07T18:16:09.497Z,13.25
2019-05-07T18:19:15.285Z,13.07
2019-05-07T18:22:38.778Z,13.20
2019-05-07T18:25:44.767Z,13.07
2019-05-07T18:28:52.235Z,13.12
2019-05-07T18:32:01.478Z,13.17
2019-05-07T18:35:07.370Z,13.39
2019-05-07T18:38:13.036Z,13.20
2019-05-07T18:41:18.819Z,13.31
2019-05-07T18:44:24.657Z,13.36
2019-05-07T18:47:30.314Z,13.17
2019-05-07T18:50:36.067Z,13.25
2019-05-07T18:53:42.486Z,13.24
2019-05-07T18:56:48.363Z,13.07
2019-05-07T18:59:54.098Z,13.47
2019-05-07T19:02:59.898Z,13.27
2019-05-07T19:06:05.710Z,13.35
2019-05-07T19:09:11.493Z,13.28
2019-05-07T19:12:22.110Z,13.29
2019-05-07T19:15:27.587Z,13.09
2019-05-07T19:18:33.297Z,13.28
2019-05-07T19:21:39.199Z,13.35
2019-05-07T19:24:48.034Z,13.29
2019-05-07T19:27:52.657Z,13.38
2019-05-07T19:30:58.634Z,13.30
2019-05-07T19:34:04.717Z,13.19
2019-05-07T19:37:10.442Z,13.49
2019-05-07T19:40:16.498Z,13.29
2019-05-07T19:43:22.307Z,13.55
2019-05-07T19:46:44.704Z,13.58
2019-05-07T19:49:52.334Z,13.49
2019-05-07T19:52:57.811Z,13.62
2019-05-07T19:56:10.160Z,13.56
2019-05-07T19:59:15.959Z,13.52
2019-05-07T20:02:26.928Z,13.62
2019-05-07T20:05:32.355Z,13.49
2019-05-07T20:08:38.493Z,13.49
2019-05-07T20:11:48.892Z,13.45
2019-05-07T20:14:54.611Z,13.27
2019-05-07T20:18:00.410Z,13.12
2019-05-07T20:21:25.826Z,13.25
2019-05-07T20:24:32.608Z,13.37
2019-05-07T20:27:39.060Z,13.30
2019-05-07T20:30:44.860Z,13.25
2019-05-07T20:33:52.835Z,12.93
2019-05-07T20:36:58.024Z,12.98
2019-05-07T20:40:05.813Z,13.15
2019-05-07T20:43:12.616Z,13.02
2019-05-07T20:46:19.575Z,13.18
2019-05-07T20:49:25.339Z,13.17
2019-05-07T20:52:32.521Z,13.17
2019-05-07T20:55:47.689Z,13.22
2019-05-07T20:58:53.513Z,13.22
2019-05-07T21:01:59.247Z,13.18
2019-05-07T21:05:06.238Z,13.12
2019-05-07T21:08:12.087Z,13.02
2019-05-07T21:11:17.950Z,13.06
2019-05-07T21:14:23.721Z,13.09
2019-05-07T21:17:32.223Z,13.30
2019-05-07T21:20:38.230Z,12.77
2019-05-07T21:23:44.040Z,12.91
2019-05-07T21:26:53.582Z,12.89
2019-05-07T21:29:59.390Z,12.88
2019-05-07T21:33:05.456Z,12.92
2019-05-07T21:36:12.128Z,13.06
2019-05-07T21:39:18.194Z,12.97
2019-05-07T21:42:23.873Z,12.94
2019-05-07T21:45:29.613Z,13.05
2019-05-07T21:48:35.990Z,13.26
2019-05-07T21:51:41.724Z,13.13
2019-05-07T21:55:12.826Z,12.78
2019-05-07T21:58:29.139Z,12.93
2019-05-07T22:01:46.468Z,12.91
2019-05-07T22:04:52.897Z,12.76
2019-05-07T22:07:58.654Z,12.98
2019-05-07T22:11:04.724Z,13.10
2019-05-07T22:14:12.636Z,13.21
2019-05-07T22:17:22.030Z,13.01
2019-05-07T22:20:28.822Z,13.03
2019-05-07T22:23:38.877Z,13.25
2019-05-07T22:26:44.535Z,13.20
2019-05-07T22:29:52.582Z,13.12
2019-05-07T22:33:03.163Z,13.12
2019-05-07T22:36:08.919Z,13.14
2019-05-07T22:39:19.022Z,13.20
2019-05-07T22:42:26.268Z,13.25
2019-05-07T22:45:32.878Z,13.09
2019-05-07T22:48:38.599Z,13.27
2019-05-07T22:51:44.324Z,13.37
2019-05-07T22:54:52.451Z,13.31
2019-05-07T22:58:08.999Z,13.53
2019-05-07T23:01:14.689Z,13.34
2019-05-07T23:04:22.822Z,13.35
2019-05-07T23:07:28.078Z,13.40
2019-05-07T23:10:35.769Z,13.26
2019-05-07T23:13:46.171Z,13.41
2019-05-07T23:16:55.385Z,13.20
2019-05-07T23:20:00.361Z,13.33
2019-05-07T23:23:06.002Z,13.23
2019-05-07T23:26:14.907Z,13.19
2019-05-07T23:29:22.484Z,13.20
2019-05-07T23:32:28.231Z,13.41
2019-05-07T23:35:34.024Z,13.35
2019-05-07T23:38:39.718Z,13.21
2019-05-07T23:41:56.253Z,13.19
2019-05-07T23:45:02.155Z,13.15
2019-05-07T23:48:07.955Z,12.98
2019-05-07T23:51:13.613Z,13.02
2019-05-07T23:54:19.321Z,12.99
2019-05-07T23:57:25.146Z,13.14
